createdAt,value
2023-04-03T00:02:48.554Z,6.07
2023-04-03T00:07:51.814Z,6.07
2023-04-03T00:12:55.027Z,6.02
2023-04-03T00:17:58.250Z,6.02
2023-04-03T00:23:02.410Z,6.01
2023-04-03T00:28:06.287Z,6.01
2023-04-03T00:33:12.939Z,5.99
2023-04-03T00:38:16.514Z,5.99
2023-04-03T00:43:27.429Z,5.89
2023-04-03T00:48:46.014Z,5.78
2023-04-03T00:54:00.839Z,5.73
2023-04-03T00:59:16.317Z,5.71
2023-04-03T01:04:32.191Z,5.72
2023-04-03T01:09:36.237Z,5.75
2023-04-03T01:14:39.337Z,5.76
2023-04-03T01:19:48.444Z,5.76
2023-04-03T01:24:54.300Z,5.75
2023-04-03T01:29:57.970Z,5.73
2023-04-03T01:35:00.866Z,5.70
2023-04-03T01:40:05.381Z,5.66
2023-04-03T01:45:09.100Z,5.56
2023-04-03T01:50:12.040Z,5.52
2023-04-03T01:55:14.837Z,5.48
2023-04-03T02:00:18.091Z,5.45
2023-04-03T02:05:21.137Z,5.38
2023-04-03T02:10:24.200Z,5.27
2023-04-03T02:15:27.210Z,5.19
2023-04-03T02:20:30.629Z,5.12
2023-04-03T02:25:36.085Z,5.09
2023-04-03T02:30:40.405Z,5.06
2023-04-03T02:35:43.541Z,5.02
2023-04-03T02:40:46.491Z,5.00
2023-04-03T02:45:49.763Z,4.93
2023-04-03T02:50:53.242Z,4.95
2023-04-03T02:55:56.382Z,4.95
2023-04-03T03:00:59.537Z,4.94
2023-04-03T03:06:03.993Z,4.91
2023-04-03T03:11:07.366Z,4.84
2023-04-03T03:16:10.777Z,4.77
2023-04-03T03:21:13.976Z,4.70
2023-04-03T03:26:17.498Z,4.59
2023-04-03T03:31:20.679Z,4.46
2023-04-03T03:36:23.769Z,4.29
2023-04-03T03:41:27.191Z,4.21
2023-04-03T03:46:30.320Z,4.08
2023-04-03T03:51:33.335Z,3.97
2023-04-03T03:56:36.668Z,3.87
2023-04-03T04:01:40.727Z,3.77
2023-04-03T04:06:43.779Z,3.65
2023-04-03T04:11:46.685Z,3.55
2023-04-03T04:16:50.229Z,3.43
2023-04-03T04:21:53.069Z,3.32
2023-04-03T04:26:56.536Z,3.24
2023-04-03T04:31:59.672Z,3.18
2023-04-03T04:37:02.784Z,3.16
2023-04-03T04:42:06.111Z,3.15
2023-04-03T04:47:09.112Z,3.18
2023-04-03T04:52:12.578Z,3.21
2023-04-03T04:57:16.675Z,3.27
2023-04-03T05:02:19.840Z,3.32
2023-04-03T05:07:23.038Z,3.36
2023-04-03T05:12:26.091Z,3.37
2023-04-03T05:17:29.211Z,3.40
2023-04-03T05:22:32.442Z,3.43
2023-04-03T05:27:36.113Z,3.45
2023-04-03T05:32:39.133Z,3.56
2023-04-03T05:37:42.322Z,3.69
2023-04-03T05:42:45.617Z,3.86
2023-04-03T05:47:48.672Z,4.02
2023-04-03T05:52:53.938Z,4.17
2023-04-03T05:57:57.614Z,4.29
2023-04-03T06:03:01.096Z,4.46
2023-04-03T06:08:04.395Z,4.67
2023-04-03T06:13:08.169Z,4.97
2023-04-03T06:18:11.735Z,5.32
2023-04-03T06:23:15.697Z,5.69
2023-04-03T06:28:20.294Z,5.97
2023-04-03T06:33:23.250Z,6.21
2023-04-03T06:38:26.101Z,6.35
2023-04-03T06:43:29.058Z,6.46
2023-04-03T06:48:32.473Z,6.50
2023-04-03T06:53:35.606Z,6.66
2023-04-03T06:58:38.612Z,6.80
2023-04-03T07:03:42.216Z,6.97
2023-04-03T07:08:46.759Z,7.14
2023-04-03T07:13:50.148Z,7.40
2023-04-03T07:18:53.411Z,7.58
2023-04-03T07:23:56.591Z,7.65
2023-04-03T07:29:00.701Z,7.64
2023-04-03T07:34:04.370Z,7.76
2023-04-03T07:39:08.205Z,8.09
2023-04-03T07:44:11.973Z,8.44
2023-04-03T07:49:15.461Z,8.60
2023-04-03T07:54:18.436Z,8.88
2023-04-03T07:59:21.508Z,9.11
2023-04-03T08:04:25.044Z,9.16
2023-04-03T08:09:28.181Z,9.31
2023-04-03T08:14:35.657Z,9.38
2023-04-03T08:19:42.279Z,9.50
2023-04-03T08:24:56.201Z,9.65
2023-04-03T08:29:59.422Z,10.58
2023-04-03T08:35:02.791Z,11.49
2023-04-03T08:40:16.070Z,12.02
2023-04-03T08:45:46.499Z,12.41
2023-04-03T08:50:58.759Z,12.38
2023-04-03T08:56:08.760Z,12.46
2023-04-03T09:01:41.992Z,12.28
2023-04-03T09:07:01.088Z,12.78
2023-04-03T09:12:18.345Z,13.40
2023-04-03T09:17:39.350Z,13.02
2023-04-03T09:22:49.607Z,12.25
2023-04-03T09:27:55.008Z,11.62
2023-04-03T09:32:59.166Z,11.22
2023-04-03T09:38:21.581Z,11.29
2023-04-03T09:43:32.919Z,11.68
2023-04-03T09:48:36.100Z,11.74
2023-04-03T09:53:43.733Z,11.47
2023-04-03T09:59:14.575Z,11.25
2023-04-03T10:04:20.094Z,11.04
2023-04-03T10:09:33.998Z,10.96
2023-04-03T10:14:58.945Z,10.97
2023-04-03T10:20:44.523Z,11.68
2023-04-03T10:26:26.654Z,12.02
2023-04-03T10:31:43.711Z,11.66
2023-04-03T10:37:17.492Z,11.32
2023-04-03T10:42:27.596Z,10.93
2023-04-03T10:47:56.157Z,10.70
2023-04-03T10:53:18.840Z,10.70
2023-04-03T10:58:46.295Z,10.54
2023-04-03T11:04:04.956Z,10.40
2023-04-03T11:09:34.600Z,10.25
2023-04-03T11:14:39.301Z,10.16
2023-04-03T11:20:19.526Z,10.00
2023-04-03T11:25:26.336Z,9.97
2023-04-03T11:31:31.148Z,10.04
2023-04-03T11:36:48.954Z,10.13
2023-04-03T11:42:00.239Z,10.27
2023-04-03T11:47:13.339Z,10.40
2023-04-03T11:53:16.719Z,10.37
2023-04-03T11:58:29.469Z,10.29
2023-04-03T12:04:07.648Z,10.26
2023-04-03T12:09:31.916Z,10.27
2023-04-03T12:14:42.834Z,10.33
2023-04-03T12:19:48.175Z,10.37
2023-04-03T12:24:53.655Z,10.50
2023-04-03T12:30:06.362Z,10.47
2023-04-03T12:35:24.284Z,10.52
2023-04-03T12:40:48.413Z,10.63
2023-04-03T12:46:01.727Z,10.65
2023-04-03T12:51:06.394Z,10.52
2023-04-03T12:56:33.830Z,10.42
2023-04-03T13:01:36.916Z,10.48
2023-04-03T13:06:43.748Z,10.74
2023-04-03T13:11:47.264Z,10.87
2023-04-03T13:17:22.358Z,10.97
2023-04-03T13:22:40.467Z,11.02
2023-04-03T13:27:45.206Z,11.08
2023-04-03T13:32:48.825Z,11.17
2023-04-03T13:38:19.854Z,11.17
2023-04-03T13:43:27.201Z,11.06
2023-04-03T13:48:48.005Z,10.93
2023-04-03T13:54:35.633Z,10.69
2023-04-03T13:59:38.802Z,10.67
2023-04-03T14:04:44.985Z,10.57
2023-04-03T14:09:49.550Z,10.53
2023-04-03T14:14:54.326Z,10.50
2023-04-03T14:19:58.829Z,10.48
2023-04-03T14:25:02.536Z,10.49
2023-04-03T14:30:15.484Z,10.42
2023-04-03T14:35:20.391Z,10.34
2023-04-03T14:40:28.463Z,10.34
2023-04-03T14:45:31.458Z,10.36
2023-04-03T14:50:34.376Z,10.34
2023-04-03T14:55:39.886Z,10.30
2023-04-03T15:00:43.083Z,10.29
2023-04-03T15:05:48.889Z,10.17
2023-04-03T15:10:53.997Z,10.04
2023-04-03T15:15:57.242Z,10.00
2023-04-03T15:21:00.248Z,9.87
2023-04-03T15:26:03.806Z,9.81
2023-04-03T15:31:08.064Z,9.76
2023-04-03T15:36:22.995Z,9.58
2023-04-03T15:41:34.830Z,9.47
2023-04-03T15:46:38.404Z,9.33
2023-04-03T15:51:42.345Z,9.25
2023-04-03T15:56:46.335Z,8.95
2023-04-03T16:01:51.249Z,8.61
2023-04-03T16:06:54.501Z,8.34
2023-04-03T16:11:57.482Z,8.18
2023-04-03T16:17:01.358Z,7.98
2023-04-03T16:22:04.392Z,7.82
2023-04-03T16:27:07.737Z,7.62
2023-04-03T16:32:13.908Z,7.48
2023-04-03T16:37:17.700Z,7.32
2023-04-03T16:42:21.364Z,7.18
2023-04-03T16:47:24.260Z,7.12
2023-04-03T16:52:27.219Z,7.09
2023-04-03T16:57:30.173Z,7.02
2023-04-03T17:02:33.299Z,6.90
2023-04-03T17:07:36.344Z,6.84
2023-04-03T17:12:39.281Z,6.76
2023-04-03T17:17:42.590Z,6.69
2023-04-03T17:22:45.696Z,6.67
2023-04-03T17:27:48.920Z,6.58
2023-04-03T17:32:52.014Z,6.50
2023-04-03T17:37:55.121Z,6.43
2023-04-03T17:42:58.582Z,6.34
2023-04-03T17:48:01.595Z,6.30
2023-04-03T17:53:04.489Z,6.24
2023-04-03T17:58:07.560Z,6.09
2023-04-03T18:03:10.768Z,6.07
2023-04-03T18:08:13.723Z,6.04
2023-04-03T18:13:17.280Z,5.97
2023-04-03T18:18:20.455Z,5.92
2023-04-03T18:23:25.420Z,5.84
2023-04-03T18:28:31.574Z,5.80
2023-04-03T18:33:34.658Z,5.71
2023-04-03T18:38:37.704Z,5.61
2023-04-03T18:43:41.205Z,5.45
2023-04-03T18:48:46.001Z,5.32
2023-04-03T18:53:48.926Z,5.21
2023-04-03T18:58:52.445Z,5.11
2023-04-03T19:03:55.528Z,5.10
2023-04-03T19:08:59.695Z,5.00
2023-04-03T19:14:15.318Z,4.91
2023-04-03T19:19:19.916Z,4.78
2023-04-03T19:24:22.952Z,4.59
2023-04-03T19:29:26.043Z,4.45
2023-04-03T19:34:29.104Z,4.37
2023-04-03T19:39:35.286Z,4.26
2023-04-03T19:44:39.324Z,4.14
2023-04-03T19:49:42.969Z,4.06
2023-04-03T19:54:45.942Z,3.99
2023-04-03T19:59:48.948Z,3.93
2023-04-03T20:04:51.983Z,3.87
2023-04-03T20:09:55.637Z,3.86
2023-04-03T20:15:00.043Z,3.82
2023-04-03T20:20:04.573Z,3.79
2023-04-03T20:25:15.359Z,3.78
2023-04-03T20:30:21.970Z,3.78
2023-04-03T20:35:25.219Z,3.71
2023-04-03T20:40:28.232Z,3.63
2023-04-03T20:45:32.201Z,3.56
2023-04-03T20:50:36.142Z,3.45
2023-04-03T20:55:39.244Z,3.38
2023-04-03T21:00:42.440Z,3.38
2023-04-03T21:05:48.300Z,3.38
2023-04-03T21:11:47.667Z,3.36
2023-04-03T21:16:50.438Z,3.34
2023-04-03T21:21:55.083Z,3.28
2023-04-03T21:26:58.092Z,3.25
2023-04-03T21:32:01.992Z,3.16
2023-04-03T21:37:08.742Z,3.12
2023-04-03T21:42:12.880Z,3.10
2023-04-03T21:47:16.878Z,3.04
2023-04-03T21:52:19.775Z,3.03
2023-04-03T21:57:23.808Z,2.99
2023-04-03T22:02:27.167Z,2.93
2023-04-03T22:07:30.096Z,2.85
2023-04-03T22:12:33.025Z,2.79
2023-04-03T22:17:35.977Z,2.69
2023-04-03T22:22:38.912Z,2.57
2023-04-03T22:27:41.960Z,2.42
2023-04-03T22:32:44.872Z,2.29
2023-04-03T22:37:48.326Z,2.14
2023-04-03T22:42:51.254Z,2.08
2023-04-03T22:47:58.662Z,1.97
2023-04-03T22:53:01.407Z,1.79
2023-04-03T22:58:04.971Z,1.64
2023-04-03T23:03:09.475Z,1.46
2023-04-03T23:08:12.706Z,1.26
2023-04-03T23:13:15.597Z,1.11
2023-04-03T23:18:18.483Z,0.93
2023-04-03T23:23:25.258Z,0.80
2023-04-03T23:28:29.428Z,0.71
2023-04-03T23:33:33.334Z,0.63
2023-04-03T23:38:36.944Z,0.59
2023-04-03T23:43:41.520Z,0.57
2023-04-03T23:48:45.282Z,0.51
2023-04-03T23:53:49.223Z,0.47
2023-04-03T23:58:52.203Z,0.40
